Time;durP1;ratioP1;P1;durP2;ratioP2;P2;SDS_P1;SDS_P2;PMS_P1;PMS_P2;Temp;Humidity;BMP_temperature;BMP_pressure;BME280_temperature;BME280_humidity;BME280_pressure;Samples;Min_cycle;Max_cycle;Signal;HPM_P1;HPM_P2
2023/08/26 00:00:28;;;;;;;28.23;21.60;;;;;;;16.66;100.00;100804.03;5053744;28;20085;-68
2023/08/26 00:02:54;;;;;;;28.58;22.48;;;;;;;16.62;100.00;100808.69;5054338;28;20036;-68
2023/08/26 00:05:19;;;;;;;29.05;22.13;;;;;;;16.65;100.00;100816.34;5052739;28;20032;-68
2023/08/26 00:07:44;;;;;;;28.50;21.70;;;;;;;16.64;100.00;100817.50;5051832;28;20051;-68
2023/08/26 00:10:10;;;;;;;32.83;23.58;;;;;;;16.56;100.00;100812.84;5043661;28;20074;-68
2023/08/26 00:12:35;;;;;;;31.90;23.17;;;;;;;16.57;100.00;100819.28;5054246;28;20065;-68
2023/08/26 00:15:00;;;;;;;28.88;22.98;;;;;;;16.54;100.00;100820.75;5052851;28;20045;-67
2023/08/26 00:17:26;;;;;;;29.77;23.58;;;;;;;16.49;100.00;100819.00;5039993;28;20041;-68
2023/08/26 00:19:51;;;;;;;28.40;22.60;;;;;;;16.49;100.00;100823.78;5038645;28;20089;-68
2023/08/26 00:22:20;;;;;;;28.13;21.58;;;;;;;16.42;100.00;100818.78;5044575;28;20072;-69
2023/08/26 00:24:47;;;;;;;27.48;20.65;;;;;;;16.32;100.00;100825.63;5051516;28;20045;-68
2023/08/26 00:27:12;;;;;;;26.90;20.58;;;;;;;16.27;100.00;100828.63;5042677;28;20029;-68
2023/08/26 00:29:38;;;;;;;27.27;20.73;;;;;;;16.24;100.00;100831.31;5033758;28;20083;-68
2023/08/26 00:32:04;;;;;;;25.48;19.75;;;;;;;16.20;100.00;100822.81;5036995;28;20496;-67
2023/08/26 00:34:29;;;;;;;26.88;20.20;;;;;;;16.19;100.00;100830.38;5045253;28;20101;-67
2023/08/26 00:36:55;;;;;;;26.05;19.83;;;;;;;16.16;100.00;100833.84;5034644;28;20068;-67
2023/08/26 00:39:20;;;;;;;25.05;19.67;;;;;;;16.11;100.00;100825.69;5047636;28;20123;-67
2023/08/26 00:41:46;;;;;;;24.83;18.17;;;;;;;16.03;100.00;100823.81;5053486;28;20029;-67
2023/08/26 00:44:11;;;;;;;26.58;18.60;;;;;;;16.03;100.00;100834.97;5053337;28;20056;-68
2023/08/26 00:46:37;;;;;;;25.58;17.42;;;;;;;16.01;100.00;100832.53;5053411;28;20060;-68
2023/08/26 00:49:03;;;;;;;25.13;18.42;;;;;;;15.93;100.00;100833.44;5053169;28;20021;-68
2023/08/26 00:51:29;;;;;;;24.40;17.70;;;;;;;15.87;100.00;100829.22;5053318;28;20480;-68
2023/08/26 00:53:54;;;;;;;24.58;18.30;;;;;;;15.83;100.00;100836.63;5053196;28;20177;-69
2023/08/26 00:56:21;;;;;;;27.80;18.15;;;;;;;15.81;100.00;100836.13;5053024;28;20019;-68
2023/08/26 00:58:46;;;;;;;22.92;17.65;;;;;;;15.82;100.00;100835.78;5046004;28;20025;-69
2023/08/26 01:01:12;;;;;;;24.02;16.30;;;;;;;15.83;100.00;100829.03;5051432;28;20025;-68
2023/08/26 01:03:38;;;;;;;25.52;17.63;;;;;;;15.80;100.00;100835.34;5047334;28;20477;-67
2023/08/26 01:06:03;;;;;;;24.17;17.13;;;;;;;15.77;100.00;100832.41;5044201;28;20110;-68
2023/08/26 01:08:29;;;;;;;24.80;17.13;;;;;;;15.74;100.00;100834.72;5052132;28;20492;-68
2023/08/26 01:11:06;;;;;;;23.80;15.75;;;;;;;15.72;100.00;100837.03;5052930;28;20029;-68
2023/08/26 01:13:41;;;;;;;22.20;16.02;;;;;;;15.66;100.00;100832.81;5051407;28;20029;-68
2023/08/26 01:16:08;;;;;;;22.83;16.00;;;;;;;15.63;100.00;100838.28;5051227;28;20048;-69
2023/08/26 01:18:34;;;;;;;23.33;16.23;;;;;;;15.55;100.00;100834.38;5052760;28;20052;-68
2023/08/26 01:21:00;;;;;;;22.92;15.82;;;;;;;15.47;100.00;100838.06;5052723;28;20048;-70
2023/08/26 01:23:44;;;;;;;21.83;16.45;;;;;;;15.39;100.00;100848.94;5052762;28;20036;-68
2023/08/26 01:26:10;;;;;;;23.35;15.45;;;;;;;15.27;100.00;100843.28;5052920;28;20464;-68
2023/08/26 01:28:35;;;;;;;21.13;15.13;;;;;;;15.09;100.00;100842.56;5052610;28;20082;-68
2023/08/26 01:31:09;;;;;;;22.15;15.40;;;;;;;15.03;100.00;100841.94;5052483;28;20060;-68
2023/08/26 01:34:00;;;;;;;21.20;15.38;;;;;;;15.03;100.00;100849.50;5052464;28;20035;-68
2023/08/26 01:36:30;;;;;;;20.55;14.38;;;;;;;14.89;100.00;100849.75;5044324;28;20093;-68
2023/08/26 01:38:57;;;;;;;20.85;13.57;;;;;;;14.75;100.00;100852.75;5039287;28;20028;-68
2023/08/26 01:41:23;;;;;;;21.88;14.73;;;;;;;14.63;100.00;100848.69;5032382;28;20104;-68
2023/08/26 01:43:50;;;;;;;22.02;13.57;;;;;;;14.50;100.00;100850.53;5032310;28;20195;-68
2023/08/26 01:46:16;;;;;;;22.33;14.35;;;;;;;14.45;100.00;100847.09;5032245;28;20040;-68
2023/08/26 01:48:42;;;;;;;20.95;13.95;;;;;;;14.36;100.00;100852.69;5032197;28;20017;-68
2023/08/26 01:51:07;;;;;;;21.52;13.82;;;;;;;14.30;100.00;100846.50;5032084;28;20529;-68
2023/08/26 01:53:33;;;;;;;23.17;14.43;;;;;;;14.22;100.00;100854.88;5032330;28;20021;-68
2023/08/26 01:55:58;;;;;;;21.05;14.13;;;;;;;14.18;100.00;100851.94;5032086;28;20112;-68
2023/08/26 01:58:23;;;;;;;20.70;14.00;;;;;;;14.11;100.00;100852.44;5032037;28;20091;-68
2023/08/26 02:00:49;;;;;;;20.95;14.05;;;;;;;14.05;100.00;100850.97;5037965;28;20021;-69
2023/08/26 02:03:14;;;;;;;20.67;13.65;;;;;;;14.00;100.00;100856.69;5036632;28;20037;-68
2023/08/26 02:05:39;;;;;;;21.55;13.48;;;;;;;13.93;100.00;100848.03;5033904;28;20603;-69
2023/08/26 02:08:05;;;;;;;20.38;13.30;;;;;;;13.91;100.00;100853.09;5045971;28;20124;-68
2023/08/26 02:10:30;;;;;;;21.70;13.88;;;;;;;13.88;100.00;100846.25;5031873;28;20160;-68
2023/08/26 02:12:56;;;;;;;20.70;13.45;;;;;;;13.81;100.00;100854.28;5031765;28;20029;-69
2023/08/26 02:15:21;;;;;;;19.98;13.57;;;;;;;13.75;100.00;100855.56;5031719;28;20053;-69
2023/08/26 02:17:46;;;;;;;21.13;13.35;;;;;;;13.67;100.00;100848.88;5031580;28;20034;-69
2023/08/26 02:20:12;;;;;;;22.05;14.57;;;;;;;13.69;100.00;100850.19;5031659;28;20472;-68
2023/08/26 02:22:37;;;;;;;19.88;13.40;;;;;;;13.58;100.00;100851.66;5040668;28;20484;-68
2023/08/26 02:25:03;;;;;;;20.38;13.27;;;;;;;13.54;100.00;100851.47;5051442;28;20025;-68
2023/08/26 02:27:28;;;;;;;21.48;13.20;;;;;;;13.46;100.00;100848.72;5051342;28;20031;-68
2023/08/26 02:29:54;;;;;;;19.50;13.05;;;;;;;13.38;100.00;100842.78;5051430;28;20119;-68
2023/08/26 02:32:19;;;;;;;20.08;13.35;;;;;;;13.31;100.00;100841.63;5051620;28;20048;-69
2023/08/26 02:34:44;;;;;;;20.50;13.48;;;;;;;13.33;100.00;100844.88;5051399;28;20099;-68
2023/08/26 02:37:10;;;;;;;21.83;13.68;;;;;;;13.29;100.00;100835.59;5051454;28;20485;-68
2023/08/26 02:39:35;;;;;;;21.58;13.95;;;;;;;13.24;100.00;100836.56;5051341;28;20029;-69
2023/08/26 02:42:00;;;;;;;19.50;13.68;;;;;;;13.22;100.00;100833.28;5051321;28;20481;-68
2023/08/26 02:44:25;;;;;;;21.90;13.80;;;;;;;13.24;100.00;100839.34;5037736;28;20509;-69
2023/08/26 02:46:51;;;;;;;20.05;13.10;;;;;;;13.25;100.00;100836.22;5050759;28;20107;-68
2023/08/26 02:49:16;;;;;;;20.67;13.05;;;;;;;13.26;100.00;100828.72;5051100;28;20023;-68
2023/08/26 02:51:41;;;;;;;21.40;12.98;;;;;;;13.23;100.00;100827.38;5051268;28;20117;-68
2023/08/26 02:54:07;;;;;;;19.88;12.70;;;;;;;13.23;100.00;100832.94;5051144;28;20079;-68
2023/08/26 02:56:32;;;;;;;20.70;13.73;;;;;;;13.21;100.00;100831.63;5051102;28;20384;-68
2023/08/26 02:58:57;;;;;;;21.95;13.35;;;;;;;13.18;100.00;100827.56;5051029;28;20437;-68
2023/08/26 03:01:24;;;;;;;19.45;13.63;;;;;;;13.18;100.00;100833.13;5051056;28;20586;-68
2023/08/26 03:03:49;;;;;;;20.15;13.55;;;;;;;13.14;100.00;100836.88;5042473;28;20044;-69
2023/08/26 03:06:14;;;;;;;19.05;13.75;;;;;;;13.11;100.00;100830.00;5031219;28;20472;-68
2023/08/26 03:08:40;;;;;;;21.17;13.35;;;;;;;13.00;100.00;100845.31;5030953;28;20030;-68
2023/08/26 03:11:07;;;;;;;21.02;13.55;;;;;;;13.00;100.00;100842.56;5030939;28;20033;-68
2023/08/26 03:13:33;;;;;;;21.08;14.30;;;;;;;12.99;100.00;100843.69;5032578;28;20555;-68
2023/08/26 03:16:10;;;;;;;20.20;13.25;;;;;;;12.97;100.00;100840.41;5040032;28;20056;-68
2023/08/26 03:18:36;;;;;;;19.95;13.93;;;;;;;12.96;100.00;100842.38;5050920;28;20049;-68
2023/08/26 03:21:10;;;;;;;21.13;12.88;;;;;;;12.88;100.00;100855.09;5051040;28;20025;-69
2023/08/26 03:23:35;;;;;;;19.92;13.80;;;;;;;12.82;100.00;100853.59;5050957;28;20025;-68
2023/08/26 03:26:02;;;;;;;20.48;13.70;;;;;;;12.78;100.00;100856.22;5050787;28;20035;-68
2023/08/26 03:28:28;;;;;;;20.83;13.90;;;;;;;12.69;100.00;100851.75;5050730;28;20032;-68
2023/08/26 03:30:53;;;;;;;22.17;13.30;;;;;;;12.66;100.00;100860.75;5052821;28;20506;-68
2023/08/26 03:33:18;;;;;;;22.23;13.23;;;;;;;12.61;100.00;100856.16;5054847;28;20025;-68
2023/08/26 03:35:44;;;;;;;22.02;13.25;;;;;;;12.57;100.00;100855.94;5054783;28;20033;-68
2023/08/26 03:38:09;;;;;;;24.10;13.55;;;;;;;12.58;100.00;100851.22;5054655;28;20037;-69
2023/08/26 03:40:39;;;;;;;21.10;13.63;;;;;;;12.52;100.00;100858.88;5054877;28;20106;-68
2023/08/26 03:43:04;;;;;;;20.65;13.30;;;;;;;12.51;100.00;100859.19;5054750;28;20040;-68
2023/08/26 03:45:29;;;;;;;20.20;13.30;;;;;;;12.47;100.00;100859.00;5046206;28;20021;-67
2023/08/26 03:47:55;;;;;;;20.27;12.93;;;;;;;12.46;100.00;100860.16;5037229;28;20056;-68
2023/08/26 03:50:20;;;;;;;19.65;13.70;;;;;;;12.43;100.00;100860.78;5034425;28;20108;-68
2023/08/26 03:52:45;;;;;;;20.35;13.45;;;;;;;12.39;100.00;100859.78;5034367;28;20404;-67
2023/08/26 03:55:12;;;;;;;20.77;13.40;;;;;;;12.38;100.00;100864.50;5034370;28;20036;-68
2023/08/26 03:57:37;;;;;;;20.48;13.48;;;;;;;12.37;100.00;100859.28;5034492;28;20026;-68
2023/08/26 04:00:04;;;;;;;21.65;12.85;;;;;;;12.34;100.00;100863.50;5034160;28;20060;-67
2023/08/26 04:02:29;;;;;;;18.75;13.70;;;;;;;12.34;100.00;100866.28;5039696;28;20079;-67
2023/08/26 04:04:55;;;;;;;21.48;13.30;;;;;;;12.30;100.00;100857.78;5053932;28;20029;-68
2023/08/26 04:07:20;;;;;;;19.13;12.57;;;;;;;12.26;100.00;100864.28;5053910;28;20028;-68
2023/08/26 04:09:45;;;;;;;19.33;13.05;;;;;;;12.23;100.00;100862.16;5053898;28;20074;-68
2023/08/26 04:12:11;;;;;;;21.60;13.07;;;;;;;12.23;100.00;100865.72;5053865;28;20102;-68
2023/08/26 04:14:36;;;;;;;19.52;12.85;;;;;;;12.23;100.00;100868.50;5053820;28;20047;-69
2023/08/26 04:17:03;;;;;;;19.50;13.77;;;;;;;12.20;100.00;100869.13;5053833;28;20104;-69
2023/08/26 04:19:30;;;;;;;20.17;13.13;;;;;;;12.15;100.00;100869.28;5053837;28;20119;-68
2023/08/26 04:21:56;;;;;;;23.08;13.30;;;;;;;12.16;100.00;100876.47;5052222;28;20116;-68
2023/08/26 04:24:21;;;;;;;21.08;13.30;;;;;;;12.14;100.00;100873.97;5053543;28;20164;-68
2023/08/26 04:26:47;;;;;;;21.23;13.75;;;;;;;12.09;100.00;100873.31;5052255;28;20350;-68
2023/08/26 04:29:12;;;;;;;21.00;13.68;;;;;;;12.05;100.00;100877.84;5053500;28;20119;-68
2023/08/26 04:31:37;;;;;;;21.08;13.90;;;;;;;12.01;100.00;100884.00;5051907;28;20017;-68
2023/08/26 04:34:02;;;;;;;20.15;13.80;;;;;;;11.98;100.00;100883.81;5045155;28;20106;-68
2023/08/26 04:36:28;;;;;;;21.33;13.63;;;;;;;11.93;100.00;100887.50;5033337;28;20082;-68
2023/08/26 04:38:53;;;;;;;19.73;14.10;;;;;;;11.93;100.00;100889.47;5033288;28;20068;-69
2023/08/26 04:41:18;;;;;;;20.35;13.63;;;;;;;11.90;100.00;100890.94;5032450;28;20132;-68
2023/08/26 04:43:44;;;;;;;18.85;13.50;;;;;;;11.88;100.00;100889.59;5032774;28;20095;-68
2023/08/26 04:46:09;;;;;;;19.85;13.57;;;;;;;11.85;100.00;100894.63;5033280;28;20438;-68
2023/08/26 04:48:34;;;;;;;20.88;13.55;;;;;;;11.89;100.00;100892.06;5033164;28;20045;-68
2023/08/26 04:51:00;;;;;;;19.77;13.07;;;;;;;11.86;100.00;100896.25;5033221;28;20056;-68
2023/08/26 04:53:25;;;;;;;18.73;12.45;;;;;;;11.92;100.00;100904.47;5033225;28;20033;-68
2023/08/26 04:55:51;;;;;;;20.42;11.70;;;;;;;11.90;100.00;100907.56;5033099;28;20029;-68
2023/08/26 04:58:17;;;;;;;20.45;11.85;;;;;;;11.85;100.00;100907.66;5033185;28;20053;-68
2023/08/26 05:00:43;;;;;;;19.90;12.20;;;;;;;11.88;100.00;100909.00;5032945;28;20482;-67
2023/08/26 05:03:09;;;;;;;18.48;11.73;;;;;;;11.90;100.00;100915.03;5039552;28;20500;-67
2023/08/26 05:05:35;;;;;;;20.40;12.15;;;;;;;11.90;100.00;100913.09;5037648;28;20156;-67
2023/08/26 05:08:00;;;;;;;20.10;12.43;;;;;;;11.96;100.00;100919.31;5042848;28;20036;-67
2023/08/26 05:10:25;;;;;;;18.30;12.23;;;;;;;11.97;100.00;100915.41;5032834;28;20049;-68
2023/08/26 05:12:50;;;;;;;18.73;11.68;;;;;;;11.99;100.00;100921.50;5035667;28;20128;-68
2023/08/26 05:15:16;;;;;;;18.55;11.48;;;;;;;12.00;100.00;100923.97;5032507;28;20049;-68
2023/08/26 05:17:41;;;;;;;18.52;11.77;;;;;;;12.03;100.00;100922.53;5032407;28;20323;-69
2023/08/26 05:20:07;;;;;;;20.40;11.43;;;;;;;12.12;100.00;100922.59;5048900;28;20110;-69
2023/08/26 05:22:32;;;;;;;18.90;11.57;;;;;;;12.14;100.00;100925.88;5052621;28;20033;-69
2023/08/26 05:24:57;;;;;;;19.85;12.13;;;;;;;12.17;100.00;100928.81;5052516;28;20020;-68
2023/08/26 05:27:23;;;;;;;18.52;11.25;;;;;;;12.20;100.00;100926.56;5052286;28;20025;-67
2023/08/26 05:29:48;;;;;;;18.25;11.68;;;;;;;12.21;100.00;100929.00;5052319;28;20025;-67
2023/08/26 05:32:14;;;;;;;20.98;11.90;;;;;;;12.29;100.00;100928.25;5046003;28;20032;-67
2023/08/26 05:34:39;;;;;;;18.10;11.75;;;;;;;12.31;100.00;100937.09;5032313;28;20048;-67
2023/08/26 05:37:05;;;;;;;18.25;11.60;;;;;;;12.33;100.00;100928.44;5032335;28;20033;-67
2023/08/26 05:39:30;;;;;;;19.15;11.38;;;;;;;12.42;100.00;100928.50;5032234;28;20033;-68
2023/08/26 05:41:56;;;;;;;19.42;11.77;;;;;;;12.45;100.00;100930.66;5032084;28;20388;-68
2023/08/26 05:44:21;;;;;;;20.00;11.60;;;;;;;12.56;100.00;100926.47;5032218;28;20053;-68
2023/08/26 05:46:46;;;;;;;18.73;11.32;;;;;;;12.61;100.00;100926.34;5030905;28;20037;-69
2023/08/26 05:49:12;;;;;;;18.83;11.40;;;;;;;12.68;100.00;100927.81;5032255;28;20029;-69
2023/08/26 05:51:37;;;;;;;18.67;11.30;;;;;;;12.71;100.00;100922.44;5032232;28;20022;-69
2023/08/26 05:54:03;;;;;;;18.85;10.98;;;;;;;12.75;100.00;100919.88;5031797;28;20025;-69
2023/08/26 05:56:28;;;;;;;19.83;11.68;;;;;;;12.78;100.00;100913.69;5030865;28;20040;-69
2023/08/26 05:58:53;;;;;;;19.50;11.52;;;;;;;12.82;100.00;100920.25;5031930;28;20026;-69
2023/08/26 06:01:19;;;;;;;18.08;11.50;;;;;;;12.85;100.00;100916.00;5036897;28;20037;-70
2023/08/26 06:03:44;;;;;;;18.67;11.32;;;;;;;12.89;100.00;100906.72;5043067;28;20106;-69
2023/08/26 06:06:09;;;;;;;19.02;11.55;;;;;;;13.01;100.00;100921.94;5050451;28;20025;-69
2023/08/26 06:08:34;;;;;;;19.00;11.43;;;;;;;13.11;100.00;100922.47;5051690;28;20076;-70
2023/08/26 06:11:00;;;;;;;17.65;11.35;;;;;;;13.13;100.00;100910.22;5051702;28;20029;-69
2023/08/26 06:13:25;;;;;;;18.52;11.57;;;;;;;13.18;100.00;100910.06;5051608;28;20032;-69
2023/08/26 06:15:57;;;;;;;19.65;12.20;;;;;;;13.20;100.00;100910.56;5051480;28;20414;-69
2023/08/26 06:18:23;;;;;;;19.33;11.48;;;;;;;13.27;100.00;100910.94;5045764;28;20033;-70
2023/08/26 06:20:52;;;;;;;19.63;11.18;;;;;;;13.36;100.00;100916.50;5035741;28;20025;-70
2023/08/26 06:23:18;;;;;;;20.35;11.63;;;;;;;13.39;100.00;100913.09;5037680;28;20039;-69
2023/08/26 06:25:54;;;;;;;20.88;11.50;;;;;;;13.48;100.00;100907.53;5030321;28;20452;-69
2023/08/26 06:28:20;;;;;;;18.95;11.13;;;;;;;13.49;100.00;100910.03;5031600;28;20049;-70
2023/08/26 06:30:46;;;;;;;19.20;11.40;;;;;;;13.54;100.00;100914.59;5031636;28;20536;-69
2023/08/26 06:33:12;;;;;;;18.55;11.30;;;;;;;13.64;100.00;100914.28;5031383;28;20112;-69
2023/08/26 06:35:38;;;;;;;21.42;11.48;;;;;;;13.68;100.00;100914.47;5031507;28;20021;-69
2023/08/26 06:38:03;;;;;;;19.70;11.40;;;;;;;13.81;100.00;100907.91;5030044;28;20032;-69
2023/08/26 06:40:31;;;;;;;18.73;11.20;;;;;;;13.89;100.00;100909.06;5031517;28;20064;-69
2023/08/26 06:42:57;;;;;;;19.45;11.48;;;;;;;13.89;100.00;100920.19;5031337;28;20037;-70
2023/08/26 06:45:23;;;;;;;19.85;11.63;;;;;;;13.95;100.00;100915.28;5035891;28;20108;-69
2023/08/26 06:47:48;;;;;;;19.48;11.32;;;;;;;13.99;100.00;100916.25;5050835;28;20132;-70
2023/08/26 06:50:14;;;;;;;19.67;11.48;;;;;;;14.07;100.00;100911.84;5050827;28;20029;-69
2023/08/26 06:52:39;;;;;;;19.50;11.05;;;;;;;14.07;100.00;100914.63;5048976;28;20048;-69
2023/08/26 06:55:06;;;;;;;18.45;10.93;;;;;;;14.18;100.00;100910.34;5042308;28;20110;-70
2023/08/26 06:57:31;;;;;;;20.73;11.45;;;;;;;14.18;100.00;100902.00;5031143;28;20027;-69
2023/08/26 06:59:57;;;;;;;19.08;11.70;;;;;;;14.21;100.00;100906.94;5031015;28;20447;-69
2023/08/26 07:02:22;;;;;;;21.42;11.75;;;;;;;14.33;100.00;100911.81;5029568;28;20045;-69
2023/08/26 07:04:48;;;;;;;18.35;11.00;;;;;;;14.37;100.00;100904.41;5030248;28;20037;-69
2023/08/26 07:07:13;;;;;;;20.38;11.25;;;;;;;14.44;100.00;100904.75;5030651;28;20174;-70
2023/08/26 07:09:38;;;;;;;19.08;11.68;;;;;;;14.49;100.00;100903.75;5030923;28;20037;-69
2023/08/26 07:12:04;;;;;;;20.42;11.68;;;;;;;14.51;100.00;100907.84;5031350;28;20419;-69
2023/08/26 07:14:29;;;;;;;19.40;11.20;;;;;;;14.56;100.00;100917.97;5040378;28;20456;-69
2023/08/26 07:16:55;;;;;;;18.83;10.88;;;;;;;14.61;100.00;100917.78;5030338;28;20033;-69
2023/08/26 07:19:20;;;;;;;19.23;10.95;;;;;;;14.65;100.00;100909.59;5031327;28;20041;-68
2023/08/26 07:21:46;;;;;;;18.25;11.32;;;;;;;14.66;100.00;100919.56;5030703;28;20040;-68
2023/08/26 07:24:11;;;;;;;19.83;11.18;;;;;;;14.78;100.00;100916.94;5030416;28;20068;-68
2023/08/26 07:26:37;;;;;;;17.60;10.95;;;;;;;14.91;100.00;100922.66;5030600;28;20388;-68
2023/08/26 07:29:02;;;;;;;19.67;11.63;;;;;;;15.09;100.00;100923.38;5030605;28;20479;-69
2023/08/26 07:31:27;;;;;;;19.17;11.43;;;;;;;15.25;100.00;100918.88;5030474;28;20032;-69
2023/08/26 07:33:53;;;;;;;19.73;11.18;;;;;;;15.37;100.00;100917.31;5030631;28;20485;-69
2023/08/26 07:36:18;;;;;;;20.38;11.27;;;;;;;15.43;100.00;100918.78;5030618;28;20034;-66
2023/08/26 07:38:44;;;;;;;20.75;11.25;;;;;;;15.53;100.00;100925.91;5030557;28;20071;-68
2023/08/26 07:41:09;;;;;;;18.17;11.07;;;;;;;15.55;100.00;100923.63;5029083;28;20022;-70
2023/08/26 07:43:37;;;;;;;18.60;11.32;;;;;;;15.62;100.00;100925.88;5032930;28;20029;-71
2023/08/26 07:46:03;;;;;;;19.88;11.10;;;;;;;15.63;100.00;100933.09;5037906;28;20029;-70
2023/08/26 07:51:19;;;;;;;17.13;10.30;;;;;;;15.70;100.00;100936.94;5380677;22;20050;-68
2023/08/26 07:53:44;;;;;;;18.40;11.10;;;;;;;15.77;100.00;100933.63;5028040;28;20044;-69
2023/08/26 07:56:09;;;;;;;19.67;10.98;;;;;;;15.82;100.00;100935.41;5025229;28;20494;-70
2023/08/26 07:58:35;;;;;;;18.65;10.80;;;;;;;15.92;100.00;100932.22;5029136;28;20048;-69
2023/08/26 08:01:00;;;;;;;19.05;11.60;;;;;;;15.97;100.00;100934.00;5021955;28;20030;-70
2023/08/26 08:03:26;;;;;;;17.17;10.95;;;;;;;16.05;100.00;100939.50;5025907;28;20048;-70
2023/08/26 08:05:51;;;;;;;18.88;10.80;;;;;;;16.17;100.00;100935.97;5029686;28;20021;-69
2023/08/26 08:08:16;;;;;;;19.33;11.20;;;;;;;16.23;100.00;100939.34;5025474;28;20040;-70
2023/08/26 08:10:42;;;;;;;17.58;11.10;;;;;;;16.29;100.00;100937.97;5029701;28;20123;-70
2023/08/26 08:13:08;;;;;;;18.35;11.18;;;;;;;16.36;100.00;100935.44;5018383;28;20110;-70
2023/08/26 08:15:34;;;;;;;18.02;10.90;;;;;;;16.41;100.00;100931.63;5021949;28;20067;-69
2023/08/26 08:17:59;;;;;;;18.58;10.80;;;;;;;16.41;100.00;100928.81;5020625;28;20096;-70
2023/08/26 08:20:25;;;;;;;17.52;10.25;;;;;;;16.38;100.00;100938.72;5029905;28;20044;-69
2023/08/26 08:22:50;;;;;;;19.42;10.80;;;;;;;16.38;100.00;100924.75;5034153;28;20032;-68
2023/08/26 08:25:15;;;;;;;17.60;10.80;;;;;;;16.44;100.00;100922.56;5028053;28;20025;-69
2023/08/26 08:27:41;;;;;;;19.77;10.98;;;;;;;16.55;100.00;100931.31;5014220;28;20029;-68
2023/08/26 08:30:07;;;;;;;16.00;10.20;;;;;;;16.68;100.00;100930.19;5014174;28;20022;-69
2023/08/26 08:32:33;;;;;;;19.27;10.40;;;;;;;16.75;100.00;100923.19;5014152;28;20124;-68
2023/08/26 08:34:59;;;;;;;20.15;10.50;;;;;;;16.77;100.00;100921.69;5014453;28;20392;-69
2023/08/26 08:37:25;;;;;;;18.10;10.00;;;;;;;16.80;100.00;100920.19;5014052;28;20396;-67
2023/08/26 08:39:50;;;;;;;18.73;10.40;;;;;;;16.77;99.27;100921.69;5014017;28;20026;-68
2023/08/26 08:42:16;;;;;;;15.88;10.18;;;;;;;16.82;100.00;100921.47;5014077;28;20037;-68
2023/08/26 08:44:43;;;;;;;19.10;10.80;;;;;;;16.96;100.00;100926.75;5014040;28;20036;-67
2023/08/26 08:47:09;;;;;;;17.90;10.27;;;;;;;17.06;99.38;100919.09;5014027;28;20495;-68
2023/08/26 08:49:36;;;;;;;16.02;10.30;;;;;;;17.14;98.08;100932.13;5020842;28;20480;-67
2023/08/26 08:52:04;;;;;;;16.05;9.90;;;;;;;17.17;96.95;100931.44;5026630;28;20060;-67
2023/08/26 08:54:31;;;;;;;15.45;10.35;;;;;;;17.25;97.51;100930.50;5026020;28;20080;-68
2023/08/26 08:56:57;;;;;;;16.38;10.25;;;;;;;17.43;97.13;100935.84;5013591;28;20036;-67
2023/08/26 08:59:25;;;;;;;14.13;9.63;;;;;;;17.57;96.70;100933.47;5019847;28;20451;-67
2023/08/26 09:01:54;;;;;;;17.00;10.50;;;;;;;17.73;95.50;100935.56;5027301;28;20539;-68
2023/08/26 09:04:19;;;;;;;17.50;10.60;;;;;;;17.87;95.27;100949.19;5033372;28;20167;-67
2023/08/26 09:06:44;;;;;;;15.05;10.10;;;;;;;17.95;91.72;100945.41;5033315;28;20038;-68
2023/08/26 09:09:12;;;;;;;16.98;10.73;;;;;;;18.04;91.30;100953.72;5032785;28;20026;-68
2023/08/26 09:11:38;;;;;;;14.98;9.60;;;;;;;18.26;92.08;100949.53;5031954;28;20076;-70
2023/08/26 09:14:04;;;;;;;14.25;9.93;;;;;;;18.31;88.34;100954.06;5025771;28;20034;-67
2023/08/26 09:16:40;;;;;;;16.80;10.93;;;;;;;18.40;89.55;100949.13;5022549;28;20036;-67
2023/08/26 09:19:07;;;;;;;17.80;10.60;;;;;;;18.55;87.74;100948.34;5013224;28;20041;-68
2023/08/26 09:21:33;;;;;;;16.50;10.20;;;;;;;18.76;88.97;100946.47;5013317;28;20036;-67
2023/08/26 09:23:59;;;;;;;17.15;10.15;;;;;;;18.89;87.40;100944.41;5012247;28;20033;-67
2023/08/26 09:26:26;;;;;;;18.02;10.60;;;;;;;18.94;86.79;100952.59;5011362;28;20104;-66
2023/08/26 09:28:51;;;;;;;16.92;10.88;;;;;;;18.97;85.62;100955.47;5010807;28;20030;-68
2023/08/26 09:31:17;;;;;;;15.93;9.95;;;;;;;18.98;84.16;100950.69;5011841;28;20042;-67
2023/08/26 09:33:48;;;;;;;16.20;10.00;;;;;;;18.97;85.36;100955.47;5012001;28;20025;-68
2023/08/26 09:36:14;;;;;;;14.65;10.15;;;;;;;18.97;85.04;100955.47;5011957;28;20145;-67
2023/08/26 09:38:44;;;;;;;13.27;9.63;;;;;;;18.99;84.87;100953.13;5012074;28;20117;-66
2023/08/26 09:41:10;;;;;;;15.93;9.60;;;;;;;19.01;83.66;100956.41;5012672;28;20112;-67
2023/08/26 09:43:36;;;;;;;15.63;10.20;;;;;;;19.05;82.23;100962.09;5012876;28;20109;-68
2023/08/26 09:46:03;;;;;;;16.05;10.10;;;;;;;19.06;82.37;100955.31;5012892;28;20057;-67
2023/08/26 09:48:28;;;;;;;18.13;10.70;;;;;;;19.19;81.98;100964.44;5012698;28;20148;-67
2023/08/26 09:50:53;;;;;;;15.98;10.32;;;;;;;19.18;83.12;100960.81;5012516;28;20136;-67
2023/08/26 09:53:30;;;;;;;15.43;10.10;;;;;;;19.36;83.47;100963.25;5012685;28;20025;-68
2023/08/26 09:55:58;;;;;;;15.38;9.45;;;;;;;19.42;80.47;100963.75;5012711;28;20369;-67
2023/08/26 09:58:23;;;;;;;14.13;9.30;;;;;;;19.43;80.45;100960.63;5012875;28;20036;-68
2023/08/26 10:00:50;;;;;;;14.95;8.90;;;;;;;19.41;80.08;100970.56;5012720;28;20101;-68
2023/08/26 10:03:21;;;;;;;13.75;9.10;;;;;;;19.33;79.88;100967.56;5012552;28;20112;-67
2023/08/26 10:05:50;;;;;;;14.52;9.02;;;;;;;19.22;79.45;100969.31;5012669;28;20492;-68
2023/08/26 10:08:17;;;;;;;17.08;9.10;;;;;;;19.16;79.75;100982.81;5012491;28;20032;-68
2023/08/26 10:10:50;;;;;;;13.65;9.35;;;;;;;19.21;80.53;100969.66;5012573;28;20036;-68
2023/08/26 10:13:21;;;;;;;13.65;9.55;;;;;;;19.35;80.24;100967.22;5012591;28;20500;-68
2023/08/26 10:15:51;;;;;;;13.55;9.38;;;;;;;19.35;79.28;100975.66;5012503;28;20042;-68
2023/08/26 10:18:26;;;;;;;15.23;8.95;;;;;;;19.24;79.46;100968.97;5011016;28;20026;-68
2023/08/26 10:20:52;;;;;;;14.65;9.88;;;;;;;19.26;79.20;100969.41;5012383;28;20112;-69
2023/08/26 10:23:19;;;;;;;14.55;9.32;;;;;;;19.29;79.47;100974.28;5012490;28;20121;-68
2023/08/26 10:25:45;;;;;;;13.48;9.07;;;;;;;19.22;80.87;100965.69;5017044;28;20447;-67
2023/08/26 10:28:11;;;;;;;14.77;9.70;;;;;;;19.12;79.50;100978.28;5019141;28;20109;-67
2023/08/26 10:30:37;;;;;;;15.63;9.05;;;;;;;19.19;78.48;100984.06;5021637;28;20101;-68
2023/08/26 10:33:04;;;;;;;15.05;9.10;;;;;;;19.20;79.79;100984.88;5021177;28;20076;-67
2023/08/26 10:35:30;;;;;;;15.73;9.70;;;;;;;19.10;79.62;100972.22;5021143;28;20431;-68
2023/08/26 10:38:12;;;;;;;14.02;9.10;;;;;;;19.23;80.91;100970.94;5017473;28;20033;-66
2023/08/26 10:40:38;;;;;;;16.88;9.00;;;;;;;19.42;80.66;100964.59;5023758;28;20037;-68
2023/08/26 10:43:08;;;;;;;13.52;9.55;;;;;;;19.60;80.39;100967.00;5017926;28;20580;-68
2023/08/26 10:45:56;;;;;;;16.65;10.00;;;;;;;19.86;79.83;100966.44;5019047;28;20044;-67
2023/08/26 10:48:24;;;;;;;15.38;9.00;;;;;;;19.87;79.31;100965.25;5015887;28;20033;-67
2023/08/26 10:50:59;;;;;;;12.98;9.43;;;;;;;19.83;78.38;100964.31;5023263;28;20143;-67
2023/08/26 10:53:25;;;;;;;14.98;9.00;;;;;;;19.83;77.20;100966.31;5017469;28;20059;-68
2023/08/26 10:55:51;;;;;;;14.38;9.20;;;;;;;19.82;77.54;100953.47;5019188;28;20242;-67
2023/08/26 10:58:21;;;;;;;13.30;8.80;;;;;;;19.67;77.80;100955.13;5014383;28;20033;-68
2023/08/26 11:00:48;;;;;;;14.57;8.90;;;;;;;19.63;78.01;100955.06;5021999;28;20034;-67
2023/08/26 11:03:16;;;;;;;14.32;9.40;;;;;;;19.73;77.29;100953.66;4992334;28;20037;-67